createdAt,value
2019-03-29T00:00:54.235Z,63.80
2019-03-29T00:01:34.228Z,63.90
2019-03-29T00:02:14.471Z,63.90
2019-03-29T00:02:54.049Z,63.90
2019-03-29T00:03:34.324Z,64.00
2019-03-29T00:04:14.616Z,63.90
2019-03-29T00:04:53.638Z,64.10
2019-03-29T00:05:34.149Z,64.20
2019-03-29T00:06:13.888Z,64.20
2019-03-29T00:06:53.613Z,64.20
2019-03-29T00:07:39.503Z,64.10
2019-03-29T00:08:14.662Z,64.20
2019-03-29T00:08:54.233Z,64.20
2019-03-29T00:09:34.350Z,64.30
2019-03-29T00:10:13.417Z,64.30
2019-03-29T00:10:52.377Z,64.40
2019-03-29T00:11:31.411Z,64.40
2019-03-29T00:12:10.471Z,64.40
2019-03-29T00:12:49.974Z,64.40
2019-03-29T00:13:29.017Z,64.40
2019-03-29T00:14:08.703Z,64.50
2019-03-29T00:14:47.814Z,64.90
2019-03-29T00:15:27.591Z,65.80
2019-03-29T00:16:07.331Z,65.40
2019-03-29T00:16:47.435Z,65.20
2019-03-29T00:17:27.830Z,65.50
2019-03-29T00:18:10.717Z,65.70
2019-03-29T00:18:50.437Z,66.70
2019-03-29T00:19:29.586Z,67.30
2019-03-29T00:20:09.059Z,68.20
2019-03-29T00:20:48.357Z,68.90
2019-03-29T00:21:27.693Z,69.90
2019-03-29T00:22:06.803Z,70.00
2019-03-29T00:22:46.061Z,69.50
2019-03-29T00:23:27.061Z,70.00
2019-03-29T00:24:07.369Z,69.70
2019-03-29T00:24:47.011Z,69.80
2019-03-29T00:25:26.433Z,70.60
2019-03-29T00:26:06.053Z,70.80
2019-03-29T00:26:45.081Z,72.00
2019-03-29T00:27:25.461Z,74.30
2019-03-29T00:28:04.537Z,74.60
2019-03-29T00:28:43.735Z,75.30
2019-03-29T00:29:22.746Z,75.00
2019-03-29T00:30:01.825Z,74.10
2019-03-29T00:30:40.963Z,77.00
2019-03-29T00:31:20.285Z,76.50
2019-03-29T00:32:00.519Z,77.00
2019-03-29T00:32:40.172Z,77.40
2019-03-29T00:33:19.607Z,78.60
2019-03-29T00:33:59.278Z,78.90
2019-03-29T00:34:38.954Z,78.90
2019-03-29T00:35:18.495Z,79.20
2019-03-29T00:35:58.015Z,80.30
2019-03-29T00:36:37.529Z,79.80
2019-03-29T00:37:18.072Z,80.30
2019-03-29T00:37:57.922Z,79.70
2019-03-29T00:38:37.553Z,79.40
2019-03-29T00:39:16.530Z,79.80
2019-03-29T00:39:56.306Z,81.10
2019-03-29T00:40:35.460Z,80.90
2019-03-29T00:41:14.445Z,80.90
2019-03-29T00:41:53.943Z,81.00
2019-03-29T00:42:33.079Z,82.80
2019-03-29T00:43:12.164Z,82.90
2019-03-29T00:43:51.499Z,84.40
2019-03-29T00:44:31.243Z,85.80
2019-03-29T00:45:10.924Z,86.30
2019-03-29T00:45:51.161Z,87.00
2019-03-29T00:46:30.281Z,87.50
2019-03-29T00:47:09.958Z,88.50
2019-03-29T00:47:49.321Z,89.90
2019-03-29T00:48:28.795Z,86.30
2019-03-29T00:49:08.294Z,89.60
2019-03-29T00:49:47.664Z,89.50
2019-03-29T00:50:30.486Z,89.30
2019-03-29T00:51:10.208Z,88.80
2019-03-29T00:51:49.234Z,87.30
2019-03-29T00:52:28.991Z,86.40
2019-03-29T00:53:09.021Z,85.80
2019-03-29T00:53:48.728Z,85.40
2019-03-29T00:54:28.430Z,85.30
2019-03-29T00:55:07.451Z,85.20
2019-03-29T00:55:46.970Z,85.70
2019-03-29T00:56:28.957Z,86.20
2019-03-29T00:57:08.678Z,86.50
2019-03-29T00:57:48.207Z,86.80
2019-03-29T00:58:27.963Z,87.30
2019-03-29T00:59:07.078Z,87.60
2019-03-29T00:59:46.100Z,87.80
2019-03-29T01:00:31.157Z,88.30
2019-03-29T01:01:08.935Z,88.70
2019-03-29T01:01:48.643Z,89.10
2019-03-29T01:02:29.032Z,89.30
2019-03-29T01:03:08.748Z,89.60
2019-03-29T01:03:48.453Z,91.50
2019-03-29T01:04:29.085Z,91.30
2019-03-29T01:05:08.396Z,91.30
2019-03-29T01:05:48.005Z,91.20
2019-03-29T01:06:30.173Z,91.20
2019-03-29T01:07:10.100Z,91.00
2019-03-29T01:07:50.030Z,91.30
2019-03-29T01:08:29.880Z,91.30
2019-03-29T01:09:09.629Z,91.30
2019-03-29T01:09:49.053Z,91.30
2019-03-29T01:10:31.401Z,91.30
2019-03-29T01:11:11.078Z,91.30
2019-03-29T01:11:50.118Z,91.40
2019-03-29T01:12:30.480Z,91.40
2019-03-29T01:13:10.232Z,91.40
2019-03-29T01:13:50.852Z,91.50
2019-03-29T01:14:30.813Z,91.80
2019-03-29T01:15:11.102Z,91.50
2019-03-29T01:15:50.720Z,91.60
2019-03-29T01:16:30.350Z,91.60
2019-03-29T01:17:10.068Z,91.80
2019-03-29T01:17:49.784Z,91.80
2019-03-29T01:18:29.468Z,91.80
2019-03-29T01:19:09.201Z,91.60
2019-03-29T01:19:48.284Z,91.60
2019-03-29T01:20:31.193Z,92.10
2019-03-29T01:21:11.406Z,92.30
2019-03-29T01:21:50.895Z,92.50
2019-03-29T01:22:31.328Z,93.00
2019-03-29T01:23:11.562Z,92.90
2019-03-29T01:23:51.273Z,92.90
2019-03-29T01:24:31.001Z,93.00
2019-03-29T01:25:10.268Z,93.10
2019-03-29T01:25:49.928Z,93.10
2019-03-29T01:26:28.968Z,93.20
2019-03-29T01:27:07.926Z,93.30
2019-03-29T01:27:46.962Z,93.40
2019-03-29T01:28:26.269Z,93.30
2019-03-29T01:29:06.231Z,93.50
2019-03-29T01:29:45.600Z,93.20
2019-03-29T01:30:24.861Z,93.40
2019-03-29T01:31:04.265Z,93.50
2019-03-29T01:31:43.817Z,93.50
2019-03-29T01:32:23.395Z,93.60
2019-03-29T01:33:02.785Z,93.40
2019-03-29T01:33:42.405Z,93.60
2019-03-29T01:34:22.103Z,93.40
2019-03-29T01:35:01.844Z,93.50
2019-03-29T01:35:41.380Z,93.70
2019-03-29T01:36:21.129Z,93.70
2019-03-29T01:37:00.846Z,93.60
2019-03-29T01:37:40.602Z,93.70
2019-03-29T01:38:22.212Z,93.50
2019-03-29T01:39:01.401Z,93.50
2019-03-29T01:39:40.915Z,93.70
2019-03-29T01:40:20.653Z,93.70
2019-03-29T01:41:00.424Z,93.60
2019-03-29T01:41:40.912Z,93.60
2019-03-29T01:42:21.239Z,93.80
2019-03-29T01:43:00.433Z,93.60
2019-03-29T01:43:40.124Z,93.70
2019-03-29T01:44:19.713Z,93.60
2019-03-29T01:44:58.832Z,93.70
2019-03-29T01:45:37.766Z,93.60
2019-03-29T01:46:16.896Z,93.70
2019-03-29T01:46:56.937Z,93.70
2019-03-29T01:47:37.382Z,93.60
2019-03-29T01:48:18.456Z,93.60
2019-03-29T01:48:57.598Z,93.60
2019-03-29T01:49:36.601Z,93.60
2019-03-29T01:50:16.228Z,93.70
2019-03-29T01:50:55.957Z,93.70
2019-03-29T01:51:35.348Z,93.60
2019-03-29T01:52:14.999Z,93.60
2019-03-29T01:52:54.670Z,93.60
2019-03-29T01:53:34.332Z,93.70
2019-03-29T01:54:13.958Z,93.80
2019-03-29T01:54:53.711Z,93.80
2019-03-29T01:55:33.496Z,93.90
2019-03-29T01:56:12.957Z,93.80
2019-03-29T01:56:52.599Z,93.70
2019-03-29T01:57:32.903Z,93.70
2019-03-29T01:58:12.772Z,93.80
2019-03-29T01:58:52.580Z,93.80
2019-03-29T01:59:32.974Z,93.80
2019-03-29T02:00:12.757Z,93.70
2019-03-29T02:00:52.415Z,93.90
2019-03-29T02:01:32.087Z,93.80
2019-03-29T02:02:12.306Z,93.80
2019-03-29T02:02:52.044Z,93.70
2019-03-29T02:03:31.449Z,93.90
2019-03-29T02:04:10.421Z,94.00
2019-03-29T02:04:49.690Z,94.00
2019-03-29T02:05:28.798Z,94.00
2019-03-29T02:06:08.156Z,93.90
2019-03-29T02:06:47.419Z,93.80
2019-03-29T02:07:27.184Z,93.60
2019-03-29T02:08:06.215Z,93.80
2019-03-29T02:08:46.000Z,93.60
2019-03-29T02:09:25.801Z,93.70
2019-03-29T02:10:05.029Z,93.80
2019-03-29T02:10:44.685Z,93.70
2019-03-29T02:11:24.305Z,93.60
2019-03-29T02:12:03.928Z,93.70
2019-03-29T02:12:42.904Z,93.70
2019-03-29T02:13:22.582Z,93.60
2019-03-29T02:14:01.622Z,93.70
2019-03-29T02:14:40.628Z,93.70
2019-03-29T02:15:19.627Z,93.70
2019-03-29T02:15:58.942Z,93.70
2019-03-29T02:16:38.369Z,93.70
2019-03-29T02:17:17.994Z,93.60
2019-03-29T02:17:57.576Z,93.70
2019-03-29T02:18:36.652Z,93.70
2019-03-29T02:19:16.369Z,93.90
2019-03-29T02:19:56.100Z,93.90
2019-03-29T02:20:35.742Z,93.60
2019-03-29T02:21:16.265Z,93.80
2019-03-29T02:21:56.452Z,93.80
2019-03-29T02:22:36.940Z,93.90
2019-03-29T02:23:16.180Z,93.90
2019-03-29T02:23:56.990Z,93.50
2019-03-29T02:24:36.373Z,93.70
2019-03-29T02:25:16.146Z,93.70
2019-03-29T02:25:55.993Z,93.60
2019-03-29T02:26:35.144Z,93.50
2019-03-29T02:27:14.770Z,93.60
2019-03-29T02:27:53.834Z,93.50
2019-03-29T02:28:33.499Z,93.20
2019-03-29T02:29:12.513Z,93.50
2019-03-29T02:29:51.458Z,93.40
2019-03-29T02:30:32.005Z,93.50
2019-03-29T02:31:11.090Z,93.40
2019-03-29T02:31:50.119Z,93.40
2019-03-29T02:32:29.209Z,93.50
2019-03-29T02:33:08.480Z,93.60
2019-03-29T02:33:48.454Z,93.40
2019-03-29T02:34:28.304Z,93.60
2019-03-29T02:35:08.292Z,93.70
2019-03-29T02:35:47.920Z,93.60
2019-03-29T02:36:27.748Z,93.70
2019-03-29T02:37:07.583Z,93.70
2019-03-29T02:37:47.144Z,93.60
2019-03-29T02:38:26.736Z,93.70
2019-03-29T02:39:06.364Z,93.70
2019-03-29T02:39:46.000Z,93.50
2019-03-29T02:40:27.920Z,93.60
2019-03-29T02:41:07.986Z,93.60
2019-03-29T02:41:47.578Z,93.50
2019-03-29T02:42:27.275Z,93.50
2019-03-29T02:43:06.902Z,93.60
2019-03-29T02:43:46.329Z,93.50
2019-03-29T02:44:29.638Z,93.40
2019-03-29T02:45:09.348Z,93.40
2019-03-29T02:45:49.025Z,93.30
2019-03-29T02:46:28.145Z,93.20
2019-03-29T02:47:07.871Z,93.10
2019-03-29T02:47:48.740Z,93.00
2019-03-29T02:48:27.775Z,93.20
2019-03-29T02:49:07.528Z,93.10
2019-03-29T02:49:46.975Z,93.10
2019-03-29T02:50:27.084Z,93.20
2019-03-29T02:51:06.729Z,93.10
2019-03-29T02:51:46.354Z,93.20
2019-03-29T02:52:26.071Z,93.20
2019-03-29T02:53:05.969Z,93.10
2019-03-29T02:53:45.575Z,93.20
2019-03-29T02:54:24.605Z,93.10
2019-03-29T02:55:03.637Z,93.00
2019-03-29T02:55:42.831Z,93.00
2019-03-29T02:56:22.149Z,92.90
2019-03-29T02:57:01.654Z,92.90
2019-03-29T02:57:41.188Z,92.80
2019-03-29T02:58:20.856Z,92.90
2019-03-29T02:59:00.317Z,92.90
2019-03-29T02:59:39.963Z,92.90
2019-03-29T03:00:20.488Z,92.90
2019-03-29T03:01:00.185Z,92.80
2019-03-29T03:01:39.889Z,92.80
2019-03-29T03:02:19.312Z,92.70
2019-03-29T03:02:58.936Z,92.80
2019-03-29T03:03:38.842Z,92.70
2019-03-29T03:04:18.420Z,92.80
2019-03-29T03:04:58.064Z,92.80
2019-03-29T03:05:37.849Z,92.60
2019-03-29T03:06:17.290Z,92.70
2019-03-29T03:06:56.956Z,92.70
2019-03-29T03:07:36.782Z,92.70
2019-03-29T03:08:16.017Z,92.70
2019-03-29T03:09:11.811Z,92.60
2019-03-29T03:09:35.551Z,92.50
2019-03-29T03:10:15.219Z,92.50
2019-03-29T03:10:54.882Z,92.60
2019-03-29T03:11:34.038Z,92.40
2019-03-29T03:12:13.332Z,92.40
2019-03-29T03:12:52.438Z,92.50
2019-03-29T03:13:31.993Z,92.50
2019-03-29T03:14:11.843Z,92.30
2019-03-29T03:14:51.377Z,92.30
2019-03-29T03:15:30.820Z,92.40
2019-03-29T03:16:10.480Z,92.40
2019-03-29T03:16:49.675Z,92.70
2019-03-29T03:17:30.064Z,92.30
2019-03-29T03:18:09.691Z,92.30
2019-03-29T03:18:49.086Z,92.40
2019-03-29T03:19:28.530Z,92.30
2019-03-29T03:20:08.081Z,92.40
2019-03-29T03:20:47.822Z,92.30
2019-03-29T03:21:26.804Z,92.30
2019-03-29T03:22:05.848Z,92.30
2019-03-29T03:22:44.809Z,92.30
2019-03-29T03:23:23.789Z,92.30
2019-03-29T03:24:03.270Z,92.10
2019-03-29T03:24:42.805Z,92.20
2019-03-29T03:25:21.811Z,92.20
2019-03-29T03:26:01.023Z,92.20
2019-03-29T03:26:40.654Z,92.20
2019-03-29T03:27:20.443Z,92.30
2019-03-29T03:28:00.016Z,92.20
2019-03-29T03:28:39.652Z,92.20
2019-03-29T03:29:19.561Z,92.10
2019-03-29T03:29:59.242Z,92.20
2019-03-29T03:30:38.425Z,92.10
2019-03-29T03:31:18.672Z,92.10
2019-03-29T03:31:57.615Z,92.10
2019-03-29T03:32:37.181Z,92.10
2019-03-29T03:33:16.200Z,92.10
2019-03-29T03:33:55.987Z,92.10
2019-03-29T03:34:35.063Z,92.10
2019-03-29T03:35:15.695Z,92.00
2019-03-29T03:35:54.935Z,91.90
2019-03-29T03:36:34.263Z,92.00
2019-03-29T03:37:13.886Z,91.90
2019-03-29T03:37:53.210Z,91.90
2019-03-29T03:38:32.648Z,91.90
2019-03-29T03:39:30.149Z,91.90
2019-03-29T03:39:54.161Z,91.90
2019-03-29T03:40:33.671Z,91.90
2019-03-29T03:41:13.529Z,91.90
2019-03-29T03:41:53.097Z,91.90
2019-03-29T03:42:32.689Z,91.80
2019-03-29T03:43:12.310Z,91.80
2019-03-29T03:43:52.035Z,91.70
2019-03-29T03:44:31.590Z,91.70
2019-03-29T03:45:11.394Z,91.70
2019-03-29T03:45:51.501Z,91.70
2019-03-29T03:46:31.803Z,91.70
2019-03-29T03:47:11.881Z,91.70
2019-03-29T03:47:51.581Z,91.60
2019-03-29T03:48:30.785Z,91.70
2019-03-29T03:49:09.988Z,91.70
2019-03-29T03:49:48.970Z,91.60
2019-03-29T03:50:46.769Z,91.60
2019-03-29T03:51:25.829Z,91.70
2019-03-29T03:52:05.094Z,91.60
2019-03-29T03:52:44.438Z,91.60
2019-03-29T03:53:23.824Z,91.60
2019-03-29T03:54:03.379Z,91.60
2019-03-29T03:54:42.789Z,91.60
2019-03-29T03:55:22.315Z,91.50
2019-03-29T03:56:02.040Z,91.50
2019-03-29T03:56:41.067Z,91.50
2019-03-29T03:57:20.307Z,91.40
2019-03-29T03:58:00.118Z,91.80
2019-03-29T03:58:39.441Z,91.40
2019-03-29T03:59:19.030Z,91.40
2019-03-29T03:59:58.093Z,91.40
2019-03-29T04:00:55.298Z,91.30
2019-03-29T04:01:34.526Z,91.30
2019-03-29T04:02:14.088Z,91.30
2019-03-29T04:02:53.692Z,91.30
2019-03-29T04:03:33.227Z,91.20
2019-03-29T04:04:12.947Z,91.20
2019-03-29T04:04:53.678Z,91.10
2019-03-29T04:05:33.439Z,91.10
2019-03-29T04:06:13.329Z,91.10
2019-03-29T04:06:53.115Z,91.10
2019-03-29T04:07:32.756Z,91.10
2019-03-29T04:08:12.531Z,91.20
2019-03-29T04:08:52.131Z,91.10
2019-03-29T04:09:48.622Z,91.10
2019-03-29T04:10:13.576Z,91.10
2019-03-29T04:10:53.459Z,91.10
2019-03-29T04:11:33.359Z,91.00
2019-03-29T04:12:12.865Z,90.90
2019-03-29T04:12:52.646Z,90.90
2019-03-29T04:13:32.341Z,90.90
2019-03-29T04:14:11.461Z,90.90
2019-03-29T04:14:51.671Z,90.90
2019-03-29T04:15:30.669Z,90.90
2019-03-29T04:16:09.656Z,90.80
2019-03-29T04:16:48.657Z,90.80
2019-03-29T04:17:27.787Z,90.90
2019-03-29T04:18:07.330Z,90.90
2019-03-29T04:18:46.851Z,90.70
2019-03-29T04:19:26.502Z,90.80
2019-03-29T04:20:06.106Z,90.80
2019-03-29T04:20:45.143Z,90.80
2019-03-29T04:21:25.527Z,90.70
2019-03-29T04:22:07.235Z,90.60
2019-03-29T04:22:46.813Z,90.50
2019-03-29T04:23:25.861Z,90.50
2019-03-29T04:24:05.658Z,90.60
2019-03-29T04:24:45.561Z,90.60
2019-03-29T04:25:24.615Z,90.40
2019-03-29T04:26:04.240Z,90.30
2019-03-29T04:26:43.379Z,90.40
2019-03-29T04:27:22.426Z,90.50
2019-03-29T04:28:03.206Z,90.40
2019-03-29T04:28:42.739Z,90.40
2019-03-29T04:29:21.768Z,90.50
2019-03-29T04:30:00.881Z,90.40
2019-03-29T04:30:39.954Z,90.30
2019-03-29T04:31:19.254Z,90.30
2019-03-29T04:31:58.499Z,90.30
2019-03-29T04:32:37.592Z,90.30
2019-03-29T04:33:16.567Z,90.30
2019-03-29T04:33:55.954Z,90.20
2019-03-29T04:34:34.951Z,90.00
2019-03-29T04:35:14.291Z,90.00
2019-03-29T04:35:53.273Z,90.10
2019-03-29T04:36:32.529Z,90.10
2019-03-29T04:37:12.145Z,90.10
2019-03-29T04:37:51.162Z,90.10
2019-03-29T04:38:30.150Z,90.00
2019-03-29T04:39:09.493Z,90.00
2019-03-29T04:40:05.755Z,89.90
2019-03-29T04:40:29.218Z,89.70
2019-03-29T04:41:08.540Z,89.90
2019-03-29T04:41:47.982Z,89.90
2019-03-29T04:42:28.139Z,90.00
2019-03-29T04:43:07.649Z,90.00
2019-03-29T04:43:47.178Z,89.60
2019-03-29T04:44:26.754Z,89.90
2019-03-29T04:45:06.473Z,90.20
2019-03-29T04:45:46.271Z,89.40
2019-03-29T04:46:26.052Z,89.50
2019-03-29T04:47:05.633Z,89.10
2019-03-29T04:47:45.298Z,89.20
2019-03-29T04:48:24.949Z,89.10
2019-03-29T04:49:05.505Z,89.30
2019-03-29T04:49:45.236Z,89.20
2019-03-29T04:50:25.118Z,89.00
2019-03-29T04:51:04.545Z,88.80
2019-03-29T04:51:46.752Z,88.80
2019-03-29T04:52:26.466Z,88.80
2019-03-29T04:53:05.606Z,88.90
2019-03-29T04:53:45.450Z,88.90
2019-03-29T04:54:27.877Z,88.40
2019-03-29T04:55:06.908Z,88.70
2019-03-29T04:55:46.905Z,88.90
2019-03-29T04:56:26.351Z,88.50
2019-03-29T04:57:05.823Z,88.80
2019-03-29T04:57:45.709Z,88.60
2019-03-29T04:58:25.408Z,88.50
2019-03-29T04:59:04.396Z,88.30
2019-03-29T04:59:43.471Z,88.30
2019-03-29T05:00:23.753Z,88.20
2019-03-29T05:01:02.706Z,88.10
2019-03-29T05:01:41.722Z,88.20
2019-03-29T05:02:21.019Z,88.20
2019-03-29T05:03:00.121Z,88.20
2019-03-29T05:03:40.024Z,87.90
2019-03-29T05:04:20.530Z,87.10
2019-03-29T05:04:59.819Z,88.30
2019-03-29T05:05:39.586Z,87.90
2019-03-29T05:06:19.499Z,87.90
2019-03-29T05:06:59.149Z,87.80
2019-03-29T05:07:38.461Z,88.00
2019-03-29T05:08:18.543Z,88.00
2019-03-29T05:08:58.230Z,87.70
2019-03-29T05:09:37.287Z,87.50
2019-03-29T05:10:21.655Z,87.90
2019-03-29T05:10:58.078Z,87.50
2019-03-29T05:11:37.678Z,87.60
2019-03-29T05:12:17.300Z,87.40
2019-03-29T05:13:14.785Z,87.50
2019-03-29T05:13:53.831Z,87.70
2019-03-29T05:14:32.913Z,87.20
2019-03-29T05:15:12.204Z,87.20
2019-03-29T05:15:51.397Z,86.30
2019-03-29T05:16:31.010Z,86.60
2019-03-29T05:17:10.554Z,86.60
2019-03-29T05:17:50.195Z,86.50
2019-03-29T05:18:29.882Z,86.70
2019-03-29T05:19:09.534Z,86.30
2019-03-29T05:19:49.173Z,86.80
2019-03-29T05:20:29.013Z,86.60
2019-03-29T05:21:08.728Z,86.50
2019-03-29T05:21:48.360Z,86.30
2019-03-29T05:22:45.671Z,86.00
2019-03-29T05:23:24.623Z,86.00
2019-03-29T05:24:03.615Z,85.60
2019-03-29T05:24:42.703Z,83.90
2019-03-29T05:25:21.933Z,84.30
2019-03-29T05:26:01.652Z,85.50
2019-03-29T05:26:41.251Z,85.20
2019-03-29T05:27:20.658Z,85.10
2019-03-29T05:28:00.252Z,86.00
2019-03-29T05:28:40.107Z,85.40
2019-03-29T05:29:19.534Z,85.70
2019-03-29T05:29:58.502Z,85.70
2019-03-29T05:30:37.492Z,85.70
2019-03-29T05:31:17.119Z,85.70
2019-03-29T05:31:56.123Z,85.60
2019-03-29T05:32:35.228Z,85.20
2019-03-29T05:33:14.368Z,85.20
2019-03-29T05:33:53.586Z,84.80
2019-03-29T05:34:34.429Z,85.10
2019-03-29T05:35:13.613Z,84.80
2019-03-29T05:35:53.493Z,85.60
2019-03-29T05:36:33.427Z,84.80
2019-03-29T05:37:12.731Z,85.30
2019-03-29T05:37:52.053Z,84.50
2019-03-29T05:38:32.541Z,84.40
2019-03-29T05:39:12.333Z,84.40
2019-03-29T05:39:51.997Z,84.60
2019-03-29T05:40:35.232Z,84.10
2019-03-29T05:41:12.651Z,84.10
2019-03-29T05:41:52.386Z,84.40
2019-03-29T05:42:32.106Z,84.50
2019-03-29T05:43:11.619Z,83.70
2019-03-29T05:43:50.899Z,84.00
2019-03-29T05:44:30.669Z,83.90
2019-03-29T05:45:29.251Z,84.10
2019-03-29T05:46:08.918Z,83.30
2019-03-29T05:47:05.950Z,84.00
2019-03-29T05:47:45.184Z,83.90
2019-03-29T05:48:24.203Z,83.90
2019-03-29T05:49:03.945Z,83.70
2019-03-29T05:49:44.211Z,83.70
2019-03-29T05:50:24.203Z,83.50
2019-03-29T05:51:03.601Z,82.90
2019-03-29T05:51:43.143Z,83.40
2019-03-29T05:52:22.791Z,83.00
2019-03-29T05:53:02.310Z,83.70
2019-03-29T05:53:41.905Z,83.70
2019-03-29T05:54:21.459Z,83.40
2019-03-29T05:55:01.211Z,82.60
2019-03-29T05:55:40.426Z,82.70
2019-03-29T05:56:20.111Z,82.90
2019-03-29T05:57:00.276Z,83.70
2019-03-29T05:57:39.884Z,82.70
2019-03-29T05:58:19.531Z,83.60
2019-03-29T05:58:59.338Z,82.90
2019-03-29T05:59:39.183Z,82.80
2019-03-29T06:00:21.152Z,82.70
2019-03-29T06:01:00.661Z,83.50
2019-03-29T06:01:40.419Z,82.90
2019-03-29T06:02:19.897Z,83.30
2019-03-29T06:02:58.873Z,83.20
2019-03-29T06:03:37.876Z,82.20
2019-03-29T06:04:16.888Z,82.70
2019-03-29T06:04:55.979Z,82.70
2019-03-29T06:05:36.459Z,83.50
2019-03-29T06:06:15.947Z,82.80
2019-03-29T06:06:55.125Z,83.00
2019-03-29T06:07:34.638Z,83.60
2019-03-29T06:08:14.257Z,82.10
2019-03-29T06:08:53.698Z,83.00
2019-03-29T06:09:34.960Z,82.90
2019-03-29T06:10:14.390Z,82.70
2019-03-29T06:10:53.846Z,82.10
2019-03-29T06:11:33.349Z,82.80
2019-03-29T06:12:12.734Z,82.30
2019-03-29T06:12:52.151Z,82.60
2019-03-29T06:13:31.778Z,82.80
2019-03-29T06:14:11.556Z,81.40
2019-03-29T06:14:51.276Z,81.30
2019-03-29T06:15:30.624Z,81.40
2019-03-29T06:16:10.294Z,81.90
2019-03-29T06:16:49.336Z,81.20
2019-03-29T06:17:28.997Z,82.10
2019-03-29T06:18:08.920Z,82.20
2019-03-29T06:18:47.922Z,82.60
2019-03-29T06:19:26.926Z,82.30
2019-03-29T06:20:05.943Z,81.70
2019-03-29T06:20:44.994Z,82.20
2019-03-29T06:21:24.374Z,81.40
2019-03-29T06:22:04.164Z,81.70
2019-03-29T06:22:43.657Z,81.70
2019-03-29T06:23:22.827Z,81.40
2019-03-29T06:24:02.314Z,81.90
2019-03-29T06:24:41.833Z,81.50
2019-03-29T06:25:20.831Z,81.70
2019-03-29T06:25:59.853Z,81.80
2019-03-29T06:26:38.844Z,81.40
2019-03-29T06:27:18.373Z,81.80
2019-03-29T06:27:57.448Z,80.70
2019-03-29T06:28:36.604Z,81.30
2019-03-29T06:29:15.809Z,81.20
2019-03-29T06:29:55.448Z,81.70
2019-03-29T06:30:35.081Z,81.70
2019-03-29T06:31:14.616Z,80.00
2019-03-29T06:31:54.373Z,80.70
2019-03-29T06:32:34.245Z,80.90
2019-03-29T06:33:13.904Z,80.80
2019-03-29T06:33:52.858Z,80.20
2019-03-29T06:34:32.465Z,80.40
2019-03-29T06:35:12.300Z,80.50
2019-03-29T06:35:52.582Z,81.60
2019-03-29T06:36:33.598Z,81.30
2019-03-29T06:37:13.335Z,81.50
2019-03-29T06:37:53.040Z,81.00
2019-03-29T06:38:32.158Z,80.30
2019-03-29T06:39:11.718Z,80.20
2019-03-29T06:39:50.993Z,80.50
2019-03-29T06:40:30.656Z,80.80
2019-03-29T06:41:09.685Z,80.80
2019-03-29T06:41:49.718Z,80.20
2019-03-29T06:42:28.703Z,80.00
2019-03-29T06:43:07.861Z,79.90
2019-03-29T06:43:47.161Z,80.20
2019-03-29T06:44:26.761Z,80.60
2019-03-29T06:45:06.009Z,79.90
2019-03-29T06:45:48.226Z,80.10
2019-03-29T06:46:27.169Z,79.70
2019-03-29T06:47:06.754Z,80.30
2019-03-29T06:47:46.352Z,79.90
2019-03-29T06:48:27.749Z,79.90
2019-03-29T06:49:08.384Z,79.50
2019-03-29T06:49:47.715Z,79.70
2019-03-29T06:50:27.772Z,79.30
2019-03-29T06:51:07.382Z,79.20
2019-03-29T06:51:46.694Z,79.20
2019-03-29T06:52:26.417Z,78.80
2019-03-29T06:53:05.704Z,78.90
2019-03-29T06:53:45.164Z,78.80
2019-03-29T06:54:25.140Z,78.90
2019-03-29T06:55:05.303Z,78.80
2019-03-29T06:55:44.899Z,79.00
2019-03-29T06:56:24.559Z,78.70
2019-03-29T06:57:03.778Z,78.30
2019-03-29T06:57:43.344Z,79.00
2019-03-29T06:58:23.007Z,78.30
2019-03-29T06:59:02.003Z,78.20
2019-03-29T06:59:41.008Z,78.20
2019-03-29T07:00:20.021Z,77.80
2019-03-29T07:01:00.593Z,78.00
2019-03-29T07:01:42.503Z,78.10
2019-03-29T07:02:21.488Z,78.10
2019-03-29T07:03:00.771Z,78.00
2019-03-29T07:03:40.230Z,77.90
2019-03-29T07:04:19.632Z,78.60
2019-03-29T07:04:59.069Z,78.30
2019-03-29T07:05:38.589Z,77.80
2019-03-29T07:06:18.457Z,77.60
2019-03-29T07:06:57.946Z,77.70
2019-03-29T07:07:37.692Z,78.20
2019-03-29T07:08:17.422Z,78.10
2019-03-29T07:08:57.009Z,78.60
2019-03-29T07:09:36.365Z,77.90
2019-03-29T07:10:15.847Z,78.10
2019-03-29T07:10:55.530Z,77.90
2019-03-29T07:11:35.249Z,78.00
2019-03-29T07:12:15.157Z,77.60
2019-03-29T07:12:56.399Z,77.90
2019-03-29T07:13:35.397Z,77.50
2019-03-29T07:14:15.128Z,77.80
2019-03-29T07:14:54.104Z,77.50
2019-03-29T07:15:33.637Z,77.50
2019-03-29T07:16:12.568Z,78.00
2019-03-29T07:16:51.560Z,77.80
2019-03-29T07:17:30.590Z,77.60
2019-03-29T07:18:10.202Z,77.70
2019-03-29T07:18:49.228Z,77.70
2019-03-29T07:19:29.164Z,77.60
2019-03-29T07:20:09.778Z,77.60
2019-03-29T07:20:49.101Z,77.50
2019-03-29T07:21:28.766Z,77.80
2019-03-29T07:22:08.186Z,77.80
2019-03-29T07:22:47.828Z,77.70
2019-03-29T07:23:27.489Z,77.40
2019-03-29T07:24:06.735Z,77.20
2019-03-29T07:24:46.376Z,77.80
2019-03-29T07:25:26.011Z,77.80
2019-03-29T07:26:06.184Z,77.10
2019-03-29T07:26:46.063Z,77.30
2019-03-29T07:27:27.508Z,77.80
2019-03-29T07:28:07.001Z,76.80
2019-03-29T07:28:46.776Z,77.20
2019-03-29T07:29:26.273Z,77.50
2019-03-29T07:30:05.387Z,76.80
2019-03-29T07:30:45.670Z,77.20
2019-03-29T07:31:25.310Z,77.20
2019-03-29T07:32:04.963Z,77.00
2019-03-29T07:32:43.996Z,76.40
2019-03-29T07:33:23.016Z,77.00
2019-03-29T07:34:02.043Z,76.90
2019-03-29T07:34:41.270Z,76.70
2019-03-29T07:35:20.519Z,76.90
2019-03-29T07:35:59.938Z,76.20
2019-03-29T07:36:39.582Z,76.70
2019-03-29T07:37:19.008Z,76.80
2019-03-29T07:37:58.650Z,77.20
2019-03-29T07:38:38.192Z,76.80
2019-03-29T07:39:17.662Z,76.70
2019-03-29T07:39:56.745Z,76.80
2019-03-29T07:40:35.856Z,76.80
2019-03-29T07:41:15.491Z,76.50
2019-03-29T07:41:54.782Z,76.40
2019-03-29T07:42:34.233Z,76.40
2019-03-29T07:43:13.385Z,76.30
2019-03-29T07:43:53.423Z,76.40
2019-03-29T07:44:32.655Z,76.30
2019-03-29T07:45:11.822Z,76.20
2019-03-29T07:45:51.298Z,75.90
2019-03-29T07:46:33.414Z,75.90
2019-03-29T07:47:12.398Z,76.10
2019-03-29T07:47:52.279Z,76.20
2019-03-29T07:48:31.503Z,75.90
2019-03-29T07:49:10.890Z,76.00
2019-03-29T07:49:51.534Z,75.40
2019-03-29T07:50:31.018Z,76.40
2019-03-29T07:51:10.644Z,76.30
2019-03-29T07:51:50.470Z,75.60
2019-03-29T07:52:29.518Z,75.60
2019-03-29T07:53:09.626Z,75.90
2019-03-29T07:53:49.239Z,75.70
2019-03-29T07:54:28.555Z,75.60
2019-03-29T07:55:07.725Z,75.70
2019-03-29T07:55:46.730Z,75.30
2019-03-29T07:56:26.010Z,75.40
2019-03-29T07:57:05.577Z,75.40
2019-03-29T07:57:44.578Z,75.00
2019-03-29T07:58:24.012Z,75.10
2019-03-29T07:59:03.380Z,75.00
2019-03-29T07:59:42.941Z,75.00
2019-03-29T08:00:22.674Z,75.00
2019-03-29T08:01:02.336Z,75.10
2019-03-29T08:01:42.101Z,74.80
2019-03-29T08:02:21.543Z,74.90
2019-03-29T08:03:00.541Z,74.60
2019-03-29T08:03:40.044Z,74.70
2019-03-29T08:04:21.613Z,74.50
2019-03-29T08:05:00.393Z,74.60
2019-03-29T08:05:40.194Z,74.70
2019-03-29T08:06:19.814Z,74.70
2019-03-29T08:06:59.414Z,74.40
2019-03-29T08:07:38.823Z,74.00
2019-03-29T08:08:24.841Z,74.50
2019-03-29T08:09:00.899Z,73.40
2019-03-29T08:09:40.443Z,73.20
2019-03-29T08:10:27.543Z,73.10
2019-03-29T08:11:01.002Z,73.00
2019-03-29T08:11:46.466Z,72.80
2019-03-29T08:12:22.181Z,72.80
2019-03-29T08:13:02.276Z,72.90
2019-03-29T08:13:41.834Z,73.00
2019-03-29T08:14:22.885Z,72.80
2019-03-29T08:15:02.354Z,73.00
2019-03-29T08:15:42.461Z,73.10
2019-03-29T08:16:22.537Z,73.30
2019-03-29T08:17:01.634Z,73.30
2019-03-29T08:17:41.189Z,73.50
2019-03-29T08:18:20.982Z,73.70
2019-03-29T08:19:00.639Z,73.80
2019-03-29T08:19:40.522Z,74.40
2019-03-29T08:20:43.886Z,74.30
2019-03-29T08:21:01.046Z,74.20
2019-03-29T08:21:41.233Z,74.20
2019-03-29T08:22:20.848Z,74.20
2019-03-29T08:23:00.579Z,74.00
2019-03-29T08:23:39.713Z,73.90
2019-03-29T08:24:19.572Z,73.90
2019-03-29T08:24:59.505Z,73.40
2019-03-29T08:25:39.242Z,73.00
2019-03-29T08:26:18.945Z,72.60
2019-03-29T08:26:57.950Z,72.20
2019-03-29T08:27:37.471Z,71.40
2019-03-29T08:28:16.478Z,70.50
2019-03-29T08:28:55.498Z,70.00
2019-03-29T08:29:34.607Z,69.90
2019-03-29T08:30:14.251Z,69.80
2019-03-29T08:30:53.621Z,70.10
2019-03-29T08:31:32.691Z,70.70
2019-03-29T08:32:11.730Z,70.80
2019-03-29T08:32:51.505Z,70.90